createdAt,value
2022-09-01T00:00:14.127Z,100326.94
2022-09-01T00:03:27.172Z,100324.13
2022-09-01T00:06:36.003Z,100295.34
2022-09-01T00:09:39.059Z,100313.72
2022-09-01T00:12:42.003Z,100307.72
2022-09-01T00:16:04.496Z,100312.91
2022-09-01T00:19:15.176Z,100320.88
2022-09-01T00:23:15.118Z,100301.66
2022-09-01T00:26:25.983Z,100260.03
2022-09-01T00:29:32.239Z,100304.00
2022-09-01T00:33:07.897Z,100332.37
2022-09-01T00:36:11.163Z,100324.72
2022-09-01T00:39:16.798Z,100350.28
2022-09-01T00:42:22.483Z,100331.84
2022-09-01T00:45:51.320Z,100349.44
2022-09-01T00:49:15.032Z,100355.41
2022-09-01T00:56:01.751Z,100365.28
2022-09-01T01:03:32.794Z,100363.28
2022-09-01T01:06:46.977Z,100361.28
2022-09-01T01:10:04.928Z,100362.87
2022-09-01T01:13:25.769Z,100298.81
2022-09-01T01:16:29.865Z,100366.81
2022-09-01T01:19:57.671Z,100367.19
2022-09-01T01:23:28.268Z,100375.56
2022-09-01T01:26:31.047Z,100373.94
2022-09-01T01:29:40.047Z,100349.09
2022-09-01T01:32:43.767Z,100368.31
2022-09-01T01:35:47.071Z,100357.91
2022-09-01T01:38:50.329Z,100349.13
2022-09-01T01:41:54.696Z,100365.87
2022-09-01T01:44:58.416Z,100355.00
2022-09-01T01:48:08.669Z,100348.22
2022-09-01T01:51:13.961Z,100367.44
2022-09-01T01:54:19.797Z,100356.22
2022-09-01T01:57:22.601Z,100357.41
2022-09-01T02:00:30.447Z,100362.53
2022-09-01T02:03:38.849Z,100364.12
2022-09-01T02:06:45.846Z,100335.34
2022-09-01T02:09:48.596Z,100350.62
2022-09-01T02:12:51.467Z,100349.81
2022-09-01T02:15:55.598Z,100351.00
2022-09-01T02:18:58.288Z,100333.81
2022-09-01T02:22:00.819Z,100303.44
2022-09-01T02:25:08.065Z,100303.31
2022-09-01T02:28:16.191Z,100300.12
2022-09-01T02:31:21.112Z,100309.56
2022-09-01T02:34:28.281Z,100320.38
2022-09-01T02:37:30.867Z,100318.34
2022-09-01T02:40:33.828Z,100310.34
2022-09-01T02:43:36.989Z,100307.94
2022-09-01T02:46:44.638Z,100308.69
2022-09-01T02:49:47.375Z,100292.78
2022-09-01T02:52:50.061Z,100309.56
2022-09-01T02:55:52.378Z,100284.66
2022-09-01T02:58:55.473Z,100303.44
2022-09-01T03:01:58.051Z,100302.75
2022-09-01T03:05:01.943Z,100302.41
2022-09-01T03:08:10.404Z,100280.78
2022-09-01T03:11:13.546Z,100296.00
2022-09-01T03:14:17.113Z,100298.41
2022-09-01T03:17:19.614Z,100274.69
2022-09-01T03:20:21.968Z,100295.81
2022-09-01T03:23:25.414Z,100276.97
2022-09-01T03:26:27.846Z,100300.16
2022-09-01T03:29:30.972Z,100291.66
2022-09-01T03:32:38.054Z,100286.91
2022-09-01T03:35:41.902Z,100271.97
2022-09-01T03:38:44.407Z,100282.00
2022-09-01T03:41:49.814Z,100317.19
2022-09-01T03:44:56.726Z,100321.19
2022-09-01T03:48:00.490Z,100319.50
2022-09-01T03:51:03.197Z,100303.88
2022-09-01T03:54:06.298Z,100332.25
2022-09-01T03:57:10.199Z,100328.22
2022-09-01T04:00:20.411Z,100313.78
2022-09-01T04:03:29.062Z,100306.75
2022-09-01T04:06:33.631Z,100298.78
2022-09-01T04:09:37.242Z,100292.28
2022-09-01T04:12:39.746Z,100279.88
2022-09-01T04:15:42.243Z,100296.22
2022-09-01T04:18:49.020Z,100281.91
2022-09-01T04:21:55.121Z,100277.19
2022-09-01T04:24:59.219Z,100285.03
2022-09-01T04:28:03.721Z,100306.59
2022-09-01T04:31:09.339Z,100309.84
2022-09-01T04:34:13.830Z,100318.59
2022-09-01T04:37:21.472Z,100292.97
2022-09-01T04:40:27.547Z,100308.81
2022-09-01T04:43:30.143Z,100284.09
2022-09-01T04:46:36.222Z,100278.53
2022-09-01T04:49:38.904Z,100311.25
2022-09-01T04:52:45.089Z,100282.44
2022-09-01T04:55:54.074Z,100312.47
2022-09-01T04:58:57.003Z,100295.28
2022-09-01T05:02:01.574Z,100285.63
2022-09-01T05:05:04.532Z,100309.66
2022-09-01T05:08:11.288Z,100283.19
2022-09-01T05:11:17.775Z,100308.81
2022-09-01T05:14:21.528Z,100307.19
2022-09-01T05:17:29.123Z,100288.41
2022-09-01T05:20:32.114Z,100290.00
2022-09-01T05:23:36.481Z,100309.97
2022-09-01T05:26:40.984Z,100311.13
2022-09-01T05:29:45.851Z,100315.94
2022-09-01T05:32:49.160Z,100301.06
2022-09-01T05:35:56.241Z,100311.00
2022-09-01T05:38:59.087Z,100321.81
2022-09-01T05:42:02.073Z,100294.19
2022-09-01T05:45:04.869Z,100310.63
2022-09-01T05:48:09.440Z,100317.44
2022-09-01T05:51:42.867Z,100316.72
2022-09-01T05:54:41.432Z,100320.28
2022-09-01T05:57:47.474Z,100325.47
2022-09-01T06:00:55.820Z,100300.69
2022-09-01T06:04:03.805Z,100326.28
2022-09-01T06:07:09.021Z,100303.41
2022-09-01T06:10:14.712Z,100313.25
2022-09-01T06:13:19.442Z,100316.06
2022-09-01T06:16:24.399Z,100333.69
2022-09-01T06:19:30.054Z,100338.09
2022-09-01T06:22:35.071Z,100311.78
2022-09-01T06:25:39.546Z,100311.00
2022-09-01T06:28:42.431Z,100315.13
2022-09-01T06:31:52.053Z,100307.81
2022-09-01T06:34:58.026Z,100318.22
2022-09-01T06:38:03.066Z,100329.16
2022-09-01T06:41:13.252Z,100328.66
2022-09-01T06:44:16.087Z,100342.16
2022-09-01T06:47:19.461Z,100316.16
2022-09-01T06:53:53.144Z,100340.72
2022-09-01T06:56:55.610Z,100313.47
2022-09-01T06:59:59.468Z,100345.59
2022-09-01T07:03:09.434Z,100304.75
2022-09-01T07:06:59.008Z,100350.50
2022-09-01T07:09:47.702Z,100339.63
2022-09-01T07:13:09.011Z,100357.41
2022-09-01T07:19:49.987Z,100333.91
2022-09-01T07:23:09.240Z,100353.19
2022-09-01T07:26:24.694Z,100352.41
2022-09-01T07:29:29.782Z,100368.44
2022-09-01T07:32:49.234Z,100361.38
2022-09-01T07:46:40.990Z,100371.91
2022-09-01T07:53:06.545Z,100382.53
2022-09-01T07:56:11.285Z,100367.41
2022-09-01T07:59:15.520Z,100363.41
2022-09-01T08:02:22.040Z,100369.41
2022-09-01T08:05:27.180Z,100364.28
2022-09-01T08:08:29.755Z,100362.69
2022-09-01T08:12:00.564Z,100379.56
2022-09-01T08:18:19.196Z,100356.31
2022-09-01T08:21:23.548Z,100349.16
2022-09-01T08:24:29.171Z,100381.56
2022-09-01T08:27:33.313Z,100353.13
2022-09-01T08:30:38.107Z,100386.00
2022-09-01T08:33:41.918Z,100364.41
2022-09-01T08:36:44.730Z,100388.47
2022-09-01T08:39:48.554Z,100372.06
2022-09-01T08:43:05.096Z,100391.75
2022-09-01T08:46:19.924Z,100377.81
2022-09-01T08:49:26.757Z,100380.66
2022-09-01T08:52:37.256Z,100375.91
2022-09-01T08:55:47.953Z,100384.75
2022-09-01T08:58:50.395Z,100381.62
2022-09-01T09:02:23.220Z,100389.66
2022-09-01T09:05:50.841Z,100383.66
2022-09-01T09:09:01.282Z,100385.28
2022-09-01T09:12:48.890Z,100380.91
2022-09-01T09:16:13.473Z,100365.69
2022-09-01T09:19:33.729Z,100386.47
2022-09-01T09:22:36.455Z,100387.28
2022-09-01T09:25:38.814Z,100364.88
2022-09-01T09:28:43.107Z,100358.09
2022-09-01T09:31:52.125Z,100376.47
2022-09-01T09:34:54.767Z,100368.87
2022-09-01T09:38:19.813Z,100364.09
2022-09-01T09:41:27.152Z,100371.25
2022-09-01T09:44:32.956Z,100356.13
2022-09-01T09:47:44.494Z,100368.87
2022-09-01T09:50:47.215Z,100343.28
2022-09-01T09:53:51.024Z,100363.22
2022-09-01T09:57:08.639Z,100339.16
2022-09-01T10:00:34.583Z,100353.53
2022-09-01T10:03:52.701Z,100331.13
2022-09-01T10:06:55.611Z,100328.69
2022-09-01T10:10:02.015Z,100354.53
2022-09-01T10:13:05.376Z,100342.06
2022-09-01T10:16:22.547Z,100332.09
2022-09-01T10:19:35.557Z,100334.38
2022-09-01T10:22:40.358Z,100338.72
2022-09-01T10:25:44.520Z,100342.63
2022-09-01T10:29:00.693Z,100326.47
2022-09-01T10:32:31.297Z,100355.50
2022-09-01T10:35:39.754Z,100345.41
2022-09-01T10:38:46.362Z,100341.72
2022-09-01T10:42:00.667Z,100323.00
2022-09-01T10:45:03.425Z,100335.44
2022-09-01T10:48:46.348Z,100320.22
2022-09-01T10:51:56.476Z,100340.22
2022-09-01T10:55:03.095Z,100335.97
2022-09-01T11:01:53.539Z,100344.41
2022-09-01T11:04:55.952Z,100332.97
2022-09-01T11:08:01.241Z,100333.94
2022-09-01T11:11:21.336Z,100311.53
2022-09-01T11:14:28.844Z,100331.44
2022-09-01T11:17:39.748Z,100316.00
2022-09-01T11:20:45.508Z,100334.72
2022-09-01T11:23:48.157Z,100338.25
2022-09-01T11:26:51.112Z,100308.41
2022-09-01T11:29:57.155Z,100320.94
2022-09-01T11:33:21.058Z,100317.63
2022-09-01T11:36:55.915Z,100317.94
2022-09-01T11:40:02.362Z,100331.91
2022-09-01T11:43:12.518Z,100328.97
2022-09-01T11:46:34.900Z,100330.12
2022-09-01T11:49:46.144Z,100315.22
2022-09-01T11:53:04.061Z,100308.47
2022-09-01T11:56:17.166Z,100316.31
2022-09-01T11:59:37.272Z,100315.59
2022-09-01T12:02:46.633Z,100306.41
2022-09-01T12:05:59.254Z,100319.50
2022-09-01T12:09:05.043Z,100290.59
2022-09-01T12:12:25.327Z,100298.88
2022-09-01T12:15:28.931Z,100309.69
2022-09-01T12:18:35.567Z,100302.03
2022-09-01T12:21:42.846Z,100289.91
2022-09-01T12:24:49.592Z,100305.53
2022-09-01T12:27:52.321Z,100304.56
2022-09-01T12:30:55.466Z,100299.13
2022-09-01T12:33:57.767Z,100285.28
2022-09-01T12:37:04.967Z,100293.88
2022-09-01T12:40:25.551Z,100306.44
2022-09-01T12:43:39.130Z,100293.19
2022-09-01T12:46:44.229Z,100301.69
2022-09-01T12:49:50.506Z,100280.16
2022-09-01T12:52:56.023Z,100274.72
2022-09-01T12:56:05.573Z,100276.56
2022-09-01T12:59:26.215Z,100272.91
2022-09-01T13:02:46.554Z,100289.22
2022-09-01T13:05:53.530Z,100282.41
2022-09-01T13:08:56.761Z,100274.75
2022-09-01T13:12:20.907Z,100271.28
2022-09-01T13:15:25.648Z,100279.03
2022-09-01T13:18:29.001Z,100276.56
2022-09-01T13:21:32.791Z,100282.91
2022-09-01T13:24:35.059Z,100282.81
2022-09-01T13:27:37.870Z,100285.38
2022-09-01T13:30:41.299Z,100268.78
2022-09-01T13:37:06.320Z,100269.88
2022-09-01T13:40:15.541Z,100263.09
2022-09-01T13:43:26.752Z,100269.59
2022-09-01T13:46:29.309Z,100288.94
2022-09-01T13:52:56.775Z,100261.06
2022-09-01T13:55:59.135Z,100268.25
2022-09-01T13:59:01.653Z,100287.69
2022-09-01T14:02:05.538Z,100269.06
2022-09-01T14:05:09.290Z,100282.13
2022-09-01T14:08:14.569Z,100263.97
2022-09-01T14:11:20.118Z,100279.97
2022-09-01T14:14:23.208Z,100287.22
2022-09-01T14:17:26.478Z,100278.22
2022-09-01T14:20:36.840Z,100290.38
2022-09-01T14:23:39.785Z,100295.03
2022-09-01T14:26:42.313Z,100286.81
2022-09-01T14:29:55.041Z,100274.94
2022-09-01T14:33:00.568Z,100278.47
2022-09-01T14:36:03.755Z,100293.84
2022-09-01T14:39:06.341Z,100279.84
2022-09-01T14:42:10.099Z,100271.84
2022-09-01T14:45:15.832Z,100293.44
2022-09-01T14:48:20.608Z,100294.97
2022-09-01T14:54:52.695Z,100294.37
2022-09-01T14:57:55.896Z,100293.81
2022-09-01T15:01:11.987Z,100280.63
2022-09-01T15:04:23.040Z,100286.91
2022-09-01T15:07:25.671Z,100290.88
2022-09-01T15:10:28.646Z,100284.37
2022-09-01T15:13:31.216Z,100290.72
2022-09-01T15:16:39.636Z,100274.53
2022-09-01T15:19:42.290Z,100296.78
2022-09-01T15:22:44.545Z,100293.59
2022-09-01T15:25:51.984Z,100272.28
2022-09-01T15:28:54.608Z,100280.28
2022-09-01T15:31:57.245Z,100271.06
2022-09-01T15:35:01.894Z,100287.03
2022-09-01T15:38:17.053Z,100284.66
2022-09-01T15:41:23.461Z,100279.19
2022-09-01T15:44:26.410Z,100282.94
2022-09-01T15:47:30.293Z,100288.56
2022-09-01T15:50:32.884Z,100290.25
2022-09-01T15:53:38.213Z,100292.03
2022-09-01T15:56:43.424Z,100288.22
2022-09-01T15:59:48.028Z,100271.63
2022-09-01T16:02:53.227Z,100286.09
2022-09-01T16:05:55.984Z,100295.91
2022-09-01T16:09:01.300Z,100270.87
2022-09-01T16:12:08.239Z,100293.72
2022-09-01T16:15:13.491Z,100285.91
2022-09-01T16:18:28.179Z,100281.28
2022-09-01T16:21:54.214Z,100288.97
2022-09-01T16:25:02.164Z,100300.22
2022-09-01T16:28:21.067Z,100276.34
2022-09-01T16:31:30.509Z,100297.59
2022-09-01T16:34:33.729Z,100275.25
2022-09-01T16:37:54.891Z,100289.59
2022-09-01T16:41:10.049Z,100290.03
2022-09-01T16:44:40.258Z,100295.72
2022-09-01T16:48:04.141Z,100296.97
2022-09-01T16:51:27.167Z,100276.62
2022-09-01T16:54:35.425Z,100298.63
2022-09-01T16:57:44.040Z,100273.50
2022-09-01T17:01:17.331Z,100295.47
2022-09-01T17:04:35.580Z,100306.31
2022-09-01T17:07:49.414Z,100300.34
2022-09-01T17:11:10.389Z,100267.63
2022-09-01T17:14:22.565Z,100307.59
2022-09-01T17:17:33.288Z,100308.41
2022-09-01T17:20:41.622Z,100307.63
2022-09-01T17:24:31.961Z,100308.06
2022-09-01T17:28:03.649Z,100308.91
2022-09-01T17:31:13.225Z,100304.53
2022-09-01T17:34:24.039Z,100306.19
2022-09-01T17:37:43.356Z,100304.22
2022-09-01T17:41:06.941Z,100308.66
2022-09-01T17:44:21.503Z,100307.87
2022-09-01T17:47:27.086Z,100307.09
2022-09-01T17:51:04.306Z,100319.13
2022-09-01T17:54:06.494Z,100327.16
2022-09-01T17:57:26.239Z,100329.97
2022-09-01T18:00:55.678Z,100328.81
2022-09-01T18:04:17.688Z,100337.59
2022-09-01T18:07:45.234Z,100336.84
2022-09-01T18:10:55.780Z,100340.84
2022-09-01T18:14:14.415Z,100348.87
2022-09-01T18:17:28.493Z,100338.50
2022-09-01T18:21:00.118Z,100348.91
2022-09-01T18:24:15.549Z,100361.69
2022-09-01T18:27:17.867Z,100357.69
2022-09-01T18:30:49.570Z,100340.09
2022-09-01T18:34:14.665Z,100343.28
2022-09-01T18:37:20.119Z,100372.87
2022-09-01T18:40:47.223Z,100371.28
2022-09-01T18:44:02.867Z,100368.06
2022-09-01T18:47:10.648Z,100368.87
2022-09-01T18:50:36.023Z,100372.06
2022-09-01T18:54:14.239Z,100377.66
2022-09-01T18:57:21.222Z,100376.09
2022-09-01T19:00:45.344Z,100376.88
2022-09-01T19:04:09.944Z,100377.69
2022-09-01T19:07:26.185Z,100373.66
2022-09-01T19:10:56.702Z,100389.63
2022-09-01T19:14:18.325Z,100364.03
2022-09-01T19:17:53.072Z,100372.03
2022-09-01T19:21:04.276Z,100389.63
2022-09-01T19:24:23.705Z,100382.44
2022-09-01T19:27:32.231Z,100364.03
2022-09-01T19:30:42.236Z,100392.03
2022-09-01T19:33:49.466Z,100396.00
2022-09-01T19:36:59.181Z,100349.56
2022-09-01T19:40:02.265Z,100382.41
2022-09-01T19:43:13.533Z,100346.38
2022-09-01T19:46:24.873Z,100397.59
2022-09-01T19:49:41.453Z,100407.16
2022-09-01T19:53:02.666Z,100409.16
2022-09-01T19:56:07.672Z,100411.13
2022-09-01T19:59:20.083Z,100410.34
2022-09-01T20:02:31.488Z,100421.50
2022-09-01T20:06:00.507Z,100423.87
2022-09-01T20:09:31.294Z,100426.28
2022-09-01T20:12:47.962Z,100412.25
2022-09-01T20:16:00.530Z,100404.62
2022-09-01T20:19:10.600Z,100417.06
2022-09-01T20:22:19.637Z,100435.81
2022-09-01T20:25:27.355Z,100434.97
2022-09-01T20:28:46.786Z,100420.16
2022-09-01T20:31:52.803Z,100432.56
2022-09-01T20:35:02.962Z,100442.97
2022-09-01T20:38:43.115Z,100426.91
2022-09-01T20:41:53.125Z,100446.50
2022-09-01T20:44:59.589Z,100429.28
2022-09-01T20:48:27.012Z,100447.69
2022-09-01T20:51:44.544Z,100430.84
2022-09-01T20:54:54.677Z,100429.22
2022-09-01T20:58:26.789Z,100429.97
2022-09-01T21:01:51.298Z,100447.56
2022-09-01T21:05:15.823Z,100457.13
2022-09-01T21:08:37.044Z,100471.44
2022-09-01T21:11:43.049Z,100464.66
2022-09-01T21:14:51.123Z,100474.19
2022-09-01T21:18:18.623Z,100450.53
2022-09-01T21:21:46.711Z,100456.50
2022-09-01T21:24:49.767Z,100464.84
2022-09-01T21:27:57.013Z,100488.47
2022-09-01T21:31:00.090Z,100476.09
2022-09-01T21:34:02.410Z,100463.19
2022-09-01T21:37:05.015Z,100466.31
2022-09-01T21:40:08.269Z,100476.66
2022-09-01T21:43:22.043Z,100491.47
2022-09-01T21:46:26.027Z,100487.06
2022-09-01T21:49:28.552Z,100468.63
2022-09-01T21:52:34.561Z,100486.69
2022-09-01T21:55:37.707Z,100488.69
2022-09-01T21:58:39.980Z,100473.38
2022-09-01T22:01:43.522Z,100475.09
2022-09-01T22:04:46.740Z,100459.88
2022-09-01T22:07:50.785Z,100451.06
2022-09-01T22:10:55.239Z,100477.50
2022-09-01T22:13:59.356Z,100472.34
2022-09-01T22:17:04.255Z,100449.09
2022-09-01T22:20:09.704Z,100447.88
2022-09-01T22:23:13.524Z,100439.84
2022-09-01T22:26:24.415Z,100460.69
2022-09-01T22:29:26.983Z,100463.03
2022-09-01T22:32:33.071Z,100460.59
2022-09-01T22:35:43.855Z,100457.37
2022-09-01T22:38:46.172Z,100454.06
2022-09-01T22:41:48.748Z,100446.97
2022-09-01T22:44:51.424Z,100425.28
2022-09-01T22:47:53.999Z,100418.09
2022-09-01T22:50:56.274Z,100446.91
2022-09-01T22:53:59.016Z,100454.88
2022-09-01T22:57:02.595Z,100449.25
2022-09-01T23:00:09.225Z,100452.47
2022-09-01T23:03:11.633Z,100438.91
2022-09-01T23:06:27.828Z,100461.13
2022-09-01T23:09:30.668Z,100457.13
2022-09-01T23:12:33.146Z,100449.16
2022-09-01T23:15:35.613Z,100428.72
2022-09-01T23:18:40.630Z,100447.13
2022-09-01T23:21:43.060Z,100444.34
2022-09-01T23:24:45.721Z,100445.94
2022-09-01T23:27:48.031Z,100434.31
2022-09-01T23:30:51.191Z,100441.91
2022-09-01T23:33:53.832Z,100415.47
2022-09-01T23:36:56.399Z,100437.50
2022-09-01T23:39:58.637Z,100441.06
2022-09-01T23:43:01.920Z,100440.66
2022-09-01T23:46:05.572Z,100420.97
2022-09-01T23:49:09.152Z,100434.66
2022-09-01T23:52:11.416Z,100437.44
2022-09-01T23:55:13.987Z,100412.22
2022-09-01T23:58:17.409Z,100402.97
